sensor_id;sensor_type;location;lat;lon;timestamp;temperature;humidity
52643;DHT22;38531;53.296;6.614;2024-02-26T00:01:43;3.10;99.90
52643;DHT22;38531;53.296;6.614;2024-02-26T00:04:10;2.50;99.90
52643;DHT22;38531;53.296;6.614;2024-02-26T00:06:37;2.50;99.90
52643;DHT22;38531;53.296;6.614;2024-02-26T00:09:05;3.60;99.90
52643;DHT22;38531;53.296;6.614;2024-02-26T00:11:32;2.50;99.90
52643;DHT22;38531;53.296;6.614;2024-02-26T00:13:57;3.70;99.90
52643;DHT22;38531;53.296;6.614;2024-02-26T00:16:24;2.60;99.90
52643;DHT22;38531;53.296;6.614;2024-02-26T00:18:50;2.70;99.90
52643;DHT22;38531;53.296;6.614;2024-02-26T00:21:16;3.30;99.90
52643;DHT22;38531;53.296;6.614;2024-02-26T00:23:42;3.50;99.90
52643;DHT22;38531;53.296;6.614;2024-02-26T00:26:07;2.80;99.90
52643;DHT22;38531;53.296;6.614;2024-02-26T00:28:33;4.00;99.90
52643;DHT22;38531;53.296;6.614;2024-02-26T00:30:59;1.50;99.90
52643;DHT22;38531;53.296;6.614;2024-02-26T00:33:25;4.00;99.90
52643;DHT22;38531;53.296;6.614;2024-02-26T00:35:51;2.90;99.90
52643;DHT22;38531;53.296;6.614;2024-02-26T00:38:16;2.30;99.90
52643;DHT22;38531;53.296;6.614;2024-02-26T00:40:42;2.90;99.90
52643;DHT22;38531;53.296;6.614;2024-02-26T00:43:08;3.10;99.90
52643;DHT22;38531;53.296;6.614;2024-02-26T00:45:34;2.90;99.90
52643;DHT22;38531;53.296;6.614;2024-02-26T00:47:59;3.50;99.90
52643;DHT22;38531;53.296;6.614;2024-02-26T00:50:36;3.90;99.90
52643;DHT22;38531;53.296;6.614;2024-02-26T00:53:02;2.80;99.90
52643;DHT22;38531;53.296;6.614;2024-02-26T00:55:28;3.20;99.90
52643;DHT22;38531;53.296;6.614;2024-02-26T00:57:54;3.90;99.90
52643;DHT22;38531;53.296;6.614;2024-02-26T01:00:19;4.10;99.90
52643;DHT22;38531;53.296;6.614;2024-02-26T01:02:45;2.70;99.90
52643;DHT22;38531;53.296;6.614;2024-02-26T01:05:14;2.80;99.90
52643;DHT22;38531;53.296;6.614;2024-02-26T01:07:42;3.50;99.90
52643;DHT22;38531;53.296;6.614;2024-02-26T01:10:08;3.60;99.90
52643;DHT22;38531;53.296;6.614;2024-02-26T01:12:35;2.70;99.90
52643;DHT22;38531;53.296;6.614;2024-02-26T01:15:02;2.70;99.90
52643;DHT22;38531;53.296;6.614;2024-02-26T01:17:28;2.90;99.90
52643;DHT22;38531;53.296;6.614;2024-02-26T01:19:54;3.40;99.90
52643;DHT22;38531;53.296;6.614;2024-02-26T01:22:20;3.30;99.90
52643;DHT22;38531;53.296;6.614;2024-02-26T01:24:46;2.70;99.90
52643;DHT22;38531;53.296;6.614;2024-02-26T01:27:12;2.80;99.90
52643;DHT22;38531;53.296;6.614;2024-02-26T01:29:40;2.70;99.90
52643;DHT22;38531;53.296;6.614;2024-02-26T01:32:06;3.10;99.90
52643;DHT22;38531;53.296;6.614;2024-02-26T01:34:31;2.70;99.90
52643;DHT22;38531;53.296;6.614;2024-02-26T01:36:57;4.10;99.90
52643;DHT22;38531;53.296;6.614;2024-02-26T01:39:23;3.70;99.90
52643;DHT22;38531;53.296;6.614;2024-02-26T01:41:49;3.80;99.90
52643;DHT22;38531;53.296;6.614;2024-02-26T01:44:14;1.90;99.90
52643;DHT22;38531;53.296;6.614;2024-02-26T01:46:40;1.90;99.90
52643;DHT22;38531;53.296;6.614;2024-02-26T01:49:11;2.50;99.90
52643;DHT22;38531;53.296;6.614;2024-02-26T01:51:39;3.60;99.90
52643;DHT22;38531;53.296;6.614;2024-02-26T01:54:08;2.90;99.90
52643;DHT22;38531;53.296;6.614;2024-02-26T01:56:35;2.80;99.90
52643;DHT22;38531;53.296;6.614;2024-02-26T01:59:02;2.80;99.90
52643;DHT22;38531;53.296;6.614;2024-02-26T02:01:31;4.10;99.90
52643;DHT22;38531;53.296;6.614;2024-02-26T02:03:59;2.80;99.90
52643;DHT22;38531;53.296;6.614;2024-02-26T02:06:26;3.70;99.90
52643;DHT22;38531;53.296;6.614;2024-02-26T02:08:54;2.30;99.90
52643;DHT22;38531;53.296;6.614;2024-02-26T02:11:20;4.00;99.90
52643;DHT22;38531;53.296;6.614;2024-02-26T02:13:46;3.60;99.90
52643;DHT22;38531;53.296;6.614;2024-02-26T02:16:12;2.80;99.90
52643;DHT22;38531;53.296;6.614;2024-02-26T02:18:38;3.80;99.90
52643;DHT22;38531;53.296;6.614;2024-02-26T02:21:04;4.30;99.90
52643;DHT22;38531;53.296;6.614;2024-02-26T02:23:29;3.90;99.90
52643;DHT22;38531;53.296;6.614;2024-02-26T02:25:57;3.80;99.90
52643;DHT22;38531;53.296;6.614;2024-02-26T02:28:25;4.10;99.90
52643;DHT22;38531;53.296;6.614;2024-02-26T02:30:51;3.90;99.90
52643;DHT22;38531;53.296;6.614;2024-02-26T02:33:17;3.30;99.90
52643;DHT22;38531;53.296;6.614;2024-02-26T02:35:43;2.00;99.90
52643;DHT22;38531;53.296;6.614;2024-02-26T02:38:09;2.90;99.90
52643;DHT22;38531;53.296;6.614;2024-02-26T02:40:35;2.90;99.90
52643;DHT22;38531;53.296;6.614;2024-02-26T02:43:01;3.40;99.90
52643;DHT22;38531;53.296;6.614;2024-02-26T02:45:28;3.10;99.90
52643;DHT22;38531;53.296;6.614;2024-02-26T02:47:54;4.00;99.90
52643;DHT22;38531;53.296;6.614;2024-02-26T02:50:20;3.20;99.90
52643;DHT22;38531;53.296;6.614;2024-02-26T02:52:45;3.20;99.90
52643;DHT22;38531;53.296;6.614;2024-02-26T02:55:12;2.00;99.90
52643;DHT22;38531;53.296;6.614;2024-02-26T02:57:37;3.00;99.90
52643;DHT22;38531;53.296;6.614;2024-02-26T03:00:08;2.90;99.90
52643;DHT22;38531;53.296;6.614;2024-02-26T03:02:34;2.70;99.90
52643;DHT22;38531;53.296;6.614;2024-02-26T03:05:04;3.40;99.90
52643;DHT22;38531;53.296;6.614;2024-02-26T03:07:30;2.70;99.90
52643;DHT22;38531;53.296;6.614;2024-02-26T03:09:56;3.70;99.90
52643;DHT22;38531;53.296;6.614;2024-02-26T03:12:21;2.60;99.90
52643;DHT22;38531;53.296;6.614;2024-02-26T03:14:47;3.10;99.90
52643;DHT22;38531;53.296;6.614;2024-02-26T03:17:13;4.00;99.90
52643;DHT22;38531;53.296;6.614;2024-02-26T03:19:39;2.60;99.90
52643;DHT22;38531;53.296;6.614;2024-02-26T03:22:04;3.60;99.90
52643;DHT22;38531;53.296;6.614;2024-02-26T03:24:30;3.60;99.90
52643;DHT22;38531;53.296;6.614;2024-02-26T03:26:56;3.20;99.90
52643;DHT22;38531;53.296;6.614;2024-02-26T03:29:22;3.40;99.90
52643;DHT22;38531;53.296;6.614;2024-02-26T03:31:48;2.90;99.90
52643;DHT22;38531;53.296;6.614;2024-02-26T03:34:14;3.40;99.90
52643;DHT22;38531;53.296;6.614;2024-02-26T03:36:40;2.30;99.90
52643;DHT22;38531;53.296;6.614;2024-02-26T03:39:06;2.00;99.90
52643;DHT22;38531;53.296;6.614;2024-02-26T03:41:33;2.60;99.90
52643;DHT22;38531;53.296;6.614;2024-02-26T03:44:00;4.10;99.90
52643;DHT22;38531;53.296;6.614;2024-02-26T03:46:26;2.60;99.90
52643;DHT22;38531;53.296;6.614;2024-02-26T03:48:51;4.10;99.90
52643;DHT22;38531;53.296;6.614;2024-02-26T03:51:17;3.60;99.90
52643;DHT22;38531;53.296;6.614;2024-02-26T03:53:43;2.80;99.90
52643;DHT22;38531;53.296;6.614;2024-02-26T03:56:09;3.60;99.90
52643;DHT22;38531;53.296;6.614;2024-02-26T03:58:36;2.50;99.90
52643;DHT22;38531;53.296;6.614;2024-02-26T04:01:02;1.90;99.90
52643;DHT22;38531;53.296;6.614;2024-02-26T04:03:28;2.80;99.90
52643;DHT22;38531;53.296;6.614;2024-02-26T04:05:53;4.00;99.90
52643;DHT22;38531;53.296;6.614;2024-02-26T04:08:19;3.60;99.90
52643;DHT22;38531;53.296;6.614;2024-02-26T04:10:45;3.70;99.90
52643;DHT22;38531;53.296;6.614;2024-02-26T04:13:11;3.70;99.90
52643;DHT22;38531;53.296;6.614;2024-02-26T04:15:37;2.70;99.90
52643;DHT22;38531;53.296;6.614;2024-02-26T04:18:02;3.90;99.90
52643;DHT22;38531;53.296;6.614;2024-02-26T04:20:28;2.70;99.90
52643;DHT22;38531;53.296;6.614;2024-02-26T04:22:54;4.00;99.90
52643;DHT22;38531;53.296;6.614;2024-02-26T04:25:20;1.90;99.90
52643;DHT22;38531;53.296;6.614;2024-02-26T04:27:45;3.80;99.90
52643;DHT22;38531;53.296;6.614;2024-02-26T04:30:11;2.70;99.90
52643;DHT22;38531;53.296;6.614;2024-02-26T04:32:37;2.70;99.90
52643;DHT22;38531;53.296;6.614;2024-02-26T04:35:03;3.60;99.90
52643;DHT22;38531;53.296;6.614;2024-02-26T04:37:28;2.70;99.90
52643;DHT22;38531;53.296;6.614;2024-02-26T04:40:00;3.80;99.90
52643;DHT22;38531;53.296;6.614;2024-02-26T04:42:27;3.20;99.90
52643;DHT22;38531;53.296;6.614;2024-02-26T04:44:54;3.90;99.90
52643;DHT22;38531;53.296;6.614;2024-02-26T04:47:20;3.70;99.90
52643;DHT22;38531;53.296;6.614;2024-02-26T04:49:49;3.90;99.90
52643;DHT22;38531;53.296;6.614;2024-02-26T04:52:15;4.00;99.90
52643;DHT22;38531;53.296;6.614;2024-02-26T04:54:40;2.70;99.90
52643;DHT22;38531;53.296;6.614;2024-02-26T04:57:06;2.40;99.90
52643;DHT22;38531;53.296;6.614;2024-02-26T04:59:32;3.60;99.90
52643;DHT22;38531;53.296;6.614;2024-02-26T05:01:57;2.80;99.90
52643;DHT22;38531;53.296;6.614;2024-02-26T05:04:23;2.80;99.90
52643;DHT22;38531;53.296;6.614;2024-02-26T05:06:49;3.70;99.90
52643;DHT22;38531;53.296;6.614;2024-02-26T05:09:14;2.20;99.90
52643;DHT22;38531;53.296;6.614;2024-02-26T05:11:40;3.80;99.90
52643;DHT22;38531;53.296;6.614;2024-02-26T05:14:06;2.70;99.90
52643;DHT22;38531;53.296;6.614;2024-02-26T05:16:32;3.60;99.90
52643;DHT22;38531;53.296;6.614;2024-02-26T05:18:57;4.10;99.90
52643;DHT22;38531;53.296;6.614;2024-02-26T05:21:23;4.10;99.90
52643;DHT22;38531;53.296;6.614;2024-02-26T05:23:50;4.40;99.90
52643;DHT22;38531;53.296;6.614;2024-02-26T05:26:22;4.00;99.90
52643;DHT22;38531;53.296;6.614;2024-02-26T05:28:48;2.50;99.90
52643;DHT22;38531;53.296;6.614;2024-02-26T05:31:14;3.00;99.90
52643;DHT22;38531;53.296;6.614;2024-02-26T05:33:40;4.50;99.90
52643;DHT22;38531;53.296;6.614;2024-02-26T05:36:06;4.00;99.90
52643;DHT22;38531;53.296;6.614;2024-02-26T05:38:32;3.30;99.90
52643;DHT22;38531;53.296;6.614;2024-02-26T05:40:58;3.20;99.90
52643;DHT22;38531;53.296;6.614;2024-02-26T05:43:25;3.00;99.90
52643;DHT22;38531;53.296;6.614;2024-02-26T05:45:51;2.20;99.90
52643;DHT22;38531;53.296;6.614;2024-02-26T05:48:16;2.40;99.90
52643;DHT22;38531;53.296;6.614;2024-02-26T05:50:42;4.50;99.90
52643;DHT22;38531;53.296;6.614;2024-02-26T05:53:08;3.20;99.90
52643;DHT22;38531;53.296;6.614;2024-02-26T05:55:33;2.30;99.90
52643;DHT22;38531;53.296;6.614;2024-02-26T05:57:59;4.10;99.90
52643;DHT22;38531;53.296;6.614;2024-02-26T06:00:25;2.70;99.90
52643;DHT22;38531;53.296;6.614;2024-02-26T06:02:50;3.20;99.90
52643;DHT22;38531;53.296;6.614;2024-02-26T06:05:16;3.20;99.90
52643;DHT22;38531;53.296;6.614;2024-02-26T06:07:42;3.20;99.90
52643;DHT22;38531;53.296;6.614;2024-02-26T06:10:08;4.10;99.90
52643;DHT22;38531;53.296;6.614;2024-02-26T06:12:37;3.20;99.90
52643;DHT22;38531;53.296;6.614;2024-02-26T06:15:03;4.10;99.90
52643;DHT22;38531;53.296;6.614;2024-02-26T06:17:29;3.60;99.90
52643;DHT22;38531;53.296;6.614;2024-02-26T06:19:55;3.20;99.90
52643;DHT22;38531;53.296;6.614;2024-02-26T06:22:21;3.80;99.90
52643;DHT22;38531;53.296;6.614;2024-02-26T06:24:46;4.50;99.90
52643;DHT22;38531;53.296;6.614;2024-02-26T06:27:12;3.50;99.90
52643;DHT22;38531;53.296;6.614;2024-02-26T06:29:38;3.30;99.90
52643;DHT22;38531;53.296;6.614;2024-02-26T06:32:05;4.30;99.90
52643;DHT22;38531;53.296;6.614;2024-02-26T06:34:31;3.30;99.90
52643;DHT22;38531;53.296;6.614;2024-02-26T06:36:56;4.20;99.90
52643;DHT22;38531;53.296;6.614;2024-02-26T06:39:22;3.30;99.90
52643;DHT22;38531;53.296;6.614;2024-02-26T06:41:48;4.60;99.90
52643;DHT22;38531;53.296;6.614;2024-02-26T06:44:13;3.70;99.90
52643;DHT22;38531;53.296;6.614;2024-02-26T06:46:39;3.90;99.90
52643;DHT22;38531;53.296;6.614;2024-02-26T06:49:05;4.50;99.90
52643;DHT22;38531;53.296;6.614;2024-02-26T06:51:31;4.10;99.90
52643;DHT22;38531;53.296;6.614;2024-02-26T06:53:57;2.20;99.90
52643;DHT22;38531;53.296;6.614;2024-02-26T06:56:23;3.80;99.90
52643;DHT22;38531;53.296;6.614;2024-02-26T06:58:49;4.50;99.90
52643;DHT22;38531;53.296;6.614;2024-02-26T07:01:17;4.50;99.90
52643;DHT22;38531;53.296;6.614;2024-02-26T07:03:43;3.30;99.90
52643;DHT22;38531;53.296;6.614;2024-02-26T07:06:09;4.80;99.90
52643;DHT22;38531;53.296;6.614;2024-02-26T07:08:34;3.50;99.90
52643;DHT22;38531;53.296;6.614;2024-02-26T07:11:00;4.20;99.90
52643;DHT22;38531;53.296;6.614;2024-02-26T07:13:26;4.10;99.90
52643;DHT22;38531;53.296;6.614;2024-02-26T07:15:51;2.80;99.90
52643;DHT22;38531;53.296;6.614;2024-02-26T07:18:17;4.10;99.90
52643;DHT22;38531;53.296;6.614;2024-02-26T07:20:43;4.60;99.90
52643;DHT22;38531;53.296;6.614;2024-02-26T07:23:09;3.90;99.90
52643;DHT22;38531;53.296;6.614;2024-02-26T07:25:34;4.50;99.90
52643;DHT22;38531;53.296;6.614;2024-02-26T07:28:00;4.50;99.90
52643;DHT22;38531;53.296;6.614;2024-02-26T07:30:26;4.00;99.90
52643;DHT22;38531;53.296;6.614;2024-02-26T07:32:51;4.00;99.90
52643;DHT22;38531;53.296;6.614;2024-02-26T07:35:17;4.90;99.90
52643;DHT22;38531;53.296;6.614;2024-02-26T07:37:43;3.40;99.90
52643;DHT22;38531;53.296;6.614;2024-02-26T07:40:09;4.30;99.90
52643;DHT22;38531;53.296;6.614;2024-02-26T07:42:35;3.50;99.90
52643;DHT22;38531;53.296;6.614;2024-02-26T07:45:02;4.10;99.90
52643;DHT22;38531;53.296;6.614;2024-02-26T07:47:28;3.50;99.90
52643;DHT22;38531;53.296;6.614;2024-02-26T07:49:55;4.30;99.90
52643;DHT22;38531;53.296;6.614;2024-02-26T07:52:20;3.50;99.90
52643;DHT22;38531;53.296;6.614;2024-02-26T07:54:46;4.80;99.90
52643;DHT22;38531;53.296;6.614;2024-02-26T07:57:12;3.50;99.90
52643;DHT22;38531;53.296;6.614;2024-02-26T07:59:40;4.40;99.90
52643;DHT22;38531;53.296;6.614;2024-02-26T08:02:06;4.80;99.90
52643;DHT22;38531;53.296;6.614;2024-02-26T08:04:32;3.70;99.90
52643;DHT22;38531;53.296;6.614;2024-02-26T08:06:57;3.70;99.90
52643;DHT22;38531;53.296;6.614;2024-02-26T08:09:23;4.50;99.90
52643;DHT22;38531;53.296;6.614;2024-02-26T08:11:49;4.30;99.90
52643;DHT22;38531;53.296;6.614;2024-02-26T08:14:14;3.80;99.90
52643;DHT22;38531;53.296;6.614;2024-02-26T08:16:40;4.90;99.90
52643;DHT22;38531;53.296;6.614;2024-02-26T08:19:06;5.60;99.90
52643;DHT22;38531;53.296;6.614;2024-02-26T08:21:31;4.80;99.90
52643;DHT22;38531;53.296;6.614;2024-02-26T08:23:57;5.50;99.90
52643;DHT22;38531;53.296;6.614;2024-02-26T08:26:23;5.10;99.90
52643;DHT22;38531;53.296;6.614;2024-02-26T08:28:49;6.10;99.90
52643;DHT22;38531;53.296;6.614;2024-02-26T08:31:16;5.80;99.90
52643;DHT22;38531;53.296;6.614;2024-02-26T08:33:42;5.10;99.90
52643;DHT22;38531;53.296;6.614;2024-02-26T08:36:08;5.60;99.90
52643;DHT22;38531;53.296;6.614;2024-02-26T08:38:34;4.20;99.90
52643;DHT22;38531;53.296;6.614;2024-02-26T08:41:02;6.70;99.90
52643;DHT22;38531;53.296;6.614;2024-02-26T08:43:28;4.20;99.90
52643;DHT22;38531;53.296;6.614;2024-02-26T08:45:54;4.10;99.90
52643;DHT22;38531;53.296;6.614;2024-02-26T08:48:19;5.40;99.90
52643;DHT22;38531;53.296;6.614;2024-02-26T08:50:45;4.60;99.90
52643;DHT22;38531;53.296;6.614;2024-02-26T08:53:11;4.30;99.90
52643;DHT22;38531;53.296;6.614;2024-02-26T08:55:36;6.10;99.90
52643;DHT22;38531;53.296;6.614;2024-02-26T08:58:02;4.30;99.90
52643;DHT22;38531;53.296;6.614;2024-02-26T09:00:28;4.40;99.90
52643;DHT22;38531;53.296;6.614;2024-02-26T09:02:53;5.50;99.90
52643;DHT22;38531;53.296;6.614;2024-02-26T09:05:19;5.20;99.90
52643;DHT22;38531;53.296;6.614;2024-02-26T09:07:45;5.30;99.90
52643;DHT22;38531;53.296;6.614;2024-02-26T09:10:12;5.40;99.90
52643;DHT22;38531;53.296;6.614;2024-02-26T09:12:38;4.40;99.90
52643;DHT22;38531;53.296;6.614;2024-02-26T09:15:06;5.70;99.90
52643;DHT22;38531;53.296;6.614;2024-02-26T09:17:33;4.50;99.90
52643;DHT22;38531;53.296;6.614;2024-02-26T09:19:58;5.70;99.90
52643;DHT22;38531;53.296;6.614;2024-02-26T09:22:24;6.20;99.90
52643;DHT22;38531;53.296;6.614;2024-02-26T09:24:50;6.10;99.90
52643;DHT22;38531;53.296;6.614;2024-02-26T09:27:16;6.70;99.90
52643;DHT22;38531;53.296;6.614;2024-02-26T09:29:42;4.60;99.90
52643;DHT22;38531;53.296;6.614;2024-02-26T09:32:08;4.70;99.90
52643;DHT22;38531;53.296;6.614;2024-02-26T09:34:34;4.80;99.90
52643;DHT22;38531;53.296;6.614;2024-02-26T09:37:00;6.10;99.90
52643;DHT22;38531;53.296;6.614;2024-02-26T09:39:26;6.30;99.90
52643;DHT22;38531;53.296;6.614;2024-02-26T09:41:53;7.40;99.90
52643;DHT22;38531;53.296;6.614;2024-02-26T09:44:20;5.10;99.90
52643;DHT22;38531;53.296;6.614;2024-02-26T09:46:48;5.90;99.90
52643;DHT22;38531;53.296;6.614;2024-02-26T09:49:15;7.20;99.90
52643;DHT22;38531;53.296;6.614;2024-02-26T09:51:42;5.30;99.90
52643;DHT22;38531;53.296;6.614;2024-02-26T09:54:09;7.00;99.90
52643;DHT22;38531;53.296;6.614;2024-02-26T09:56:38;5.50;99.90
52643;DHT22;38531;53.296;6.614;2024-02-26T09:59:09;4.90;99.90
52643;DHT22;38531;53.296;6.614;2024-02-26T10:01:37;4.90;99.90
52643;DHT22;38531;53.296;6.614;2024-02-26T10:04:04;7.00;99.90
52643;DHT22;38531;53.296;6.614;2024-02-26T10:06:30;5.10;99.90
52643;DHT22;38531;53.296;6.614;2024-02-26T10:08:56;6.10;99.90
52643;DHT22;38531;53.296;6.614;2024-02-26T10:11:24;5.20;99.90
52643;DHT22;38531;53.296;6.614;2024-02-26T10:13:50;6.00;99.90
52643;DHT22;38531;53.296;6.614;2024-02-26T10:16:16;6.50;99.90
52643;DHT22;38531;53.296;6.614;2024-02-26T10:19:08;6.50;99.90
52643;DHT22;38531;53.296;6.614;2024-02-26T10:21:36;6.10;99.90
52643;DHT22;38531;53.296;6.614;2024-02-26T10:24:02;5.20;99.90
52643;DHT22;38531;53.296;6.614;2024-02-26T10:26:27;5.40;99.90
52643;DHT22;38531;53.296;6.614;2024-02-26T10:28:53;5.70;99.90
52643;DHT22;38531;53.296;6.614;2024-02-26T10:31:24;6.40;99.90
52643;DHT22;38531;53.296;6.614;2024-02-26T10:33:55;6.70;99.90
52643;DHT22;38531;53.296;6.614;2024-02-26T10:36:22;5.30;99.90
52643;DHT22;38531;53.296;6.614;2024-02-26T10:38:47;5.80;99.90
52643;DHT22;38531;53.296;6.614;2024-02-26T10:41:14;6.50;99.90
52643;DHT22;38531;53.296;6.614;2024-02-26T10:43:42;6.10;99.90
52643;DHT22;38531;53.296;6.614;2024-02-26T10:46:09;5.40;99.90
52643;DHT22;38531;53.296;6.614;2024-02-26T10:48:35;5.40;99.90
52643;DHT22;38531;53.296;6.614;2024-02-26T10:51:01;6.20;99.90
52643;DHT22;38531;53.296;6.614;2024-02-26T10:53:29;5.40;99.90
52643;DHT22;38531;53.296;6.614;2024-02-26T10:56:00;6.30;99.90
52643;DHT22;38531;53.296;6.614;2024-02-26T10:58:27;6.60;99.90
52643;DHT22;38531;53.296;6.614;2024-02-26T11:00:56;6.70;99.90
52643;DHT22;38531;53.296;6.614;2024-02-26T11:03:22;5.30;99.90
52643;DHT22;38531;53.296;6.614;2024-02-26T11:05:49;5.80;99.90
52643;DHT22;38531;53.296;6.614;2024-02-26T11:08:19;5.90;99.90
52643;DHT22;38531;53.296;6.614;2024-02-26T11:10:47;6.70;99.90
52643;DHT22;38531;53.296;6.614;2024-02-26T11:13:16;6.60;99.90
52643;DHT22;38531;53.296;6.614;2024-02-26T11:15:43;6.00;99.90
52643;DHT22;38531;53.296;6.614;2024-02-26T11:18:10;6.30;99.90
52643;DHT22;38531;53.296;6.614;2024-02-26T11:20:40;6.60;99.90
52643;DHT22;38531;53.296;6.614;2024-02-26T11:23:06;7.50;99.90
52643;DHT22;38531;53.296;6.614;2024-02-26T11:25:32;5.90;99.90
52643;DHT22;38531;53.296;6.614;2024-02-26T11:28:04;6.20;99.90
52643;DHT22;38531;53.296;6.614;2024-02-26T11:30:32;5.60;99.90
52643;DHT22;38531;53.296;6.614;2024-02-26T11:33:00;6.20;99.90
52643;DHT22;38531;53.296;6.614;2024-02-26T11:35:28;5.70;99.90
52643;DHT22;38531;53.296;6.614;2024-02-26T11:37:55;5.60;99.90
52643;DHT22;38531;53.296;6.614;2024-02-26T11:40:25;5.70;99.90
52643;DHT22;38531;53.296;6.614;2024-02-26T11:42:51;7.40;99.90
52643;DHT22;38531;53.296;6.614;2024-02-26T11:48:22;5.60;99.90
52643;DHT22;38531;53.296;6.614;2024-02-26T11:50:53;5.60;99.90
52643;DHT22;38531;53.296;6.614;2024-02-26T11:55:45;5.70;99.90
52643;DHT22;38531;53.296;6.614;2024-02-26T11:58:11;6.90;99.90
52643;DHT22;38531;53.296;6.614;2024-02-26T12:00:40;7.00;99.90
52643;DHT22;38531;53.296;6.614;2024-02-26T12:03:06;4.70;99.90
52643;DHT22;38531;53.296;6.614;2024-02-26T12:05:34;5.50;99.90
52643;DHT22;38531;53.296;6.614;2024-02-26T12:10:39;7.20;99.90
52643;DHT22;38531;53.296;6.614;2024-02-26T12:13:11;5.60;99.90
52643;DHT22;38531;53.296;6.614;2024-02-26T12:15:42;5.60;99.90
52643;DHT22;38531;53.296;6.614;2024-02-26T12:18:09;7.80;99.90
52643;DHT22;38531;53.296;6.614;2024-02-26T12:20:38;5.60;99.90
52643;DHT22;38531;53.296;6.614;2024-02-26T12:23:04;8.00;99.90
52643;DHT22;38531;53.296;6.614;2024-02-26T12:25:31;6.10;99.90
52643;DHT22;38531;53.296;6.614;2024-02-26T12:27:57;6.60;99.90
52643;DHT22;38531;53.296;6.614;2024-02-26T12:30:24;5.80;99.90
52643;DHT22;38531;53.296;6.614;2024-02-26T12:32:52;7.30;99.90
52643;DHT22;38531;53.296;6.614;2024-02-26T12:35:18;7.20;99.90
52643;DHT22;38531;53.296;6.614;2024-02-26T12:37:44;6.10;99.90
52643;DHT22;38531;53.296;6.614;2024-02-26T12:40:11;6.20;99.90
52643;DHT22;38531;53.296;6.614;2024-02-26T12:42:38;5.80;99.90
52643;DHT22;38531;53.296;6.614;2024-02-26T12:45:10;6.60;99.90
52643;DHT22;38531;53.296;6.614;2024-02-26T12:47:41;5.80;99.90
52643;DHT22;38531;53.296;6.614;2024-02-26T12:50:08;6.00;99.90
52643;DHT22;38531;53.296;6.614;2024-02-26T12:52:45;5.70;99.90
52643;DHT22;38531;53.296;6.614;2024-02-26T12:55:14;5.60;99.90
52643;DHT22;38531;53.296;6.614;2024-02-26T12:57:41;5.90;99.90
52643;DHT22;38531;53.296;6.614;2024-02-26T13:00:10;6.10;99.90
52643;DHT22;38531;53.296;6.614;2024-02-26T13:02:38;6.80;99.90
52643;DHT22;38531;53.296;6.614;2024-02-26T13:05:06;5.30;99.90
52643;DHT22;38531;53.296;6.614;2024-02-26T13:07:33;5.60;99.90
52643;DHT22;38531;53.296;6.614;2024-02-26T13:10:00;6.50;99.90
52643;DHT22;38531;53.296;6.614;2024-02-26T13:12:26;6.70;99.90
52643;DHT22;38531;53.296;6.614;2024-02-26T13:15:02;5.90;99.90
52643;DHT22;38531;53.296;6.614;2024-02-26T13:17:31;5.70;99.90
52643;DHT22;38531;53.296;6.614;2024-02-26T13:19:57;7.50;99.90
52643;DHT22;38531;53.296;6.614;2024-02-26T13:22:23;7.40;99.90
52643;DHT22;38531;53.296;6.614;2024-02-26T13:24:59;6.40;99.90
52643;DHT22;38531;53.296;6.614;2024-02-26T13:27:25;4.80;99.90
52643;DHT22;38531;53.296;6.614;2024-02-26T13:32:40;5.30;99.90
52643;DHT22;38531;53.296;6.614;2024-02-26T13:35:09;5.60;99.90
52643;DHT22;38531;53.296;6.614;2024-02-26T13:37:36;5.30;99.90
52643;DHT22;38531;53.296;6.614;2024-02-26T13:40:09;7.00;99.90
52643;DHT22;38531;53.296;6.614;2024-02-26T13:42:36;5.50;99.90
52643;DHT22;38531;53.296;6.614;2024-02-26T13:45:03;6.70;99.90
52643;DHT22;38531;53.296;6.614;2024-02-26T13:47:32;5.50;99.90
52643;DHT22;38531;53.296;6.614;2024-02-26T13:49:58;6.50;99.90
52643;DHT22;38531;53.296;6.614;2024-02-26T13:52:25;6.70;99.90
52643;DHT22;38531;53.296;6.614;2024-02-26T13:54:51;6.60;99.90
52643;DHT22;38531;53.296;6.614;2024-02-26T13:57:18;6.30;99.90
52643;DHT22;38531;53.296;6.614;2024-02-26T13:59:44;6.20;99.90
52643;DHT22;38531;53.296;6.614;2024-02-26T14:02:10;5.40;99.90
52643;DHT22;38531;53.296;6.614;2024-02-26T14:04:37;6.10;99.90
52643;DHT22;38531;53.296;6.614;2024-02-26T14:07:03;7.00;99.90
52643;DHT22;38531;53.296;6.614;2024-02-26T14:09:29;5.30;99.90
52643;DHT22;38531;53.296;6.614;2024-02-26T14:11:55;7.00;99.90
52643;DHT22;38531;53.296;6.614;2024-02-26T14:14:20;5.30;99.90
52643;DHT22;38531;53.296;6.614;2024-02-26T14:16:46;7.30;99.90
52643;DHT22;38531;53.296;6.614;2024-02-26T14:19:12;6.70;99.90
52643;DHT22;38531;53.296;6.614;2024-02-26T14:21:38;7.10;99.90
52643;DHT22;38531;53.296;6.614;2024-02-26T14:24:04;6.20;99.90
52643;DHT22;38531;53.296;6.614;2024-02-26T14:26:30;5.30;99.90
52643;DHT22;38531;53.296;6.614;2024-02-26T14:28:55;5.90;99.90
52643;DHT22;38531;53.296;6.614;2024-02-26T14:31:21;7.20;99.90
52643;DHT22;38531;53.296;6.614;2024-02-26T14:33:47;7.30;99.90
52643;DHT22;38531;53.296;6.614;2024-02-26T14:36:13;7.70;99.90
52643;DHT22;38531;53.296;6.614;2024-02-26T14:38:39;6.40;99.90
52643;DHT22;38531;53.296;6.614;2024-02-26T14:41:05;7.10;99.90
52643;DHT22;38531;53.296;6.614;2024-02-26T14:43:31;6.30;99.90
52643;DHT22;38531;53.296;6.614;2024-02-26T14:45:59;5.10;99.90
52643;DHT22;38531;53.296;6.614;2024-02-26T14:48:25;6.60;99.90
52643;DHT22;38531;53.296;6.614;2024-02-26T14:50:51;6.10;99.90
52643;DHT22;38531;53.296;6.614;2024-02-26T14:53:17;7.50;99.90
52643;DHT22;38531;53.296;6.614;2024-02-26T14:55:43;5.50;99.90
52643;DHT22;38531;53.296;6.614;2024-02-26T15:01:50;5.20;99.90
52643;DHT22;38531;53.296;6.614;2024-02-26T15:04:16;6.80;99.90
52643;DHT22;38531;53.296;6.614;2024-02-26T15:06:41;6.80;99.90
52643;DHT22;38531;53.296;6.614;2024-02-26T15:09:07;6.40;99.90
52643;DHT22;38531;53.296;6.614;2024-02-26T15:11:37;6.60;99.90
52643;DHT22;38531;53.296;6.614;2024-02-26T15:14:03;5.90;99.90
52643;DHT22;38531;53.296;6.614;2024-02-26T15:16:28;6.90;99.90
52643;DHT22;38531;53.296;6.614;2024-02-26T15:18:54;5.40;99.90
52643;DHT22;38531;53.296;6.614;2024-02-26T15:21:20;5.30;99.90
52643;DHT22;38531;53.296;6.614;2024-02-26T15:23:45;5.60;99.90
52643;DHT22;38531;53.296;6.614;2024-02-26T15:26:11;6.40;99.90
52643;DHT22;38531;53.296;6.614;2024-02-26T15:28:37;6.60;99.90
52643;DHT22;38531;53.296;6.614;2024-02-26T15:31:03;6.10;99.90
52643;DHT22;38531;53.296;6.614;2024-02-26T15:33:29;4.20;99.90
52643;DHT22;38531;53.296;6.614;2024-02-26T15:35:54;6.80;99.90
52643;DHT22;38531;53.296;6.614;2024-02-26T15:38:20;7.50;99.90
52643;DHT22;38531;53.296;6.614;2024-02-26T15:40:46;6.50;99.90
52643;DHT22;38531;53.296;6.614;2024-02-26T15:43:13;6.40;99.90
52643;DHT22;38531;53.296;6.614;2024-02-26T15:45:38;6.90;99.90
52643;DHT22;38531;53.296;6.614;2024-02-26T15:48:04;7.00;99.90
52643;DHT22;38531;53.296;6.614;2024-02-26T15:50:31;4.30;99.90
52643;DHT22;38531;53.296;6.614;2024-02-26T15:52:56;5.50;99.90
52643;DHT22;38531;53.296;6.614;2024-02-26T15:55:23;4.90;99.90